createdAt,value
2019-03-25T00:04:06.839Z,4.7
2019-03-25T00:09:29.491Z,4.3
2019-03-25T00:14:52.346Z,4.6
2019-03-25T00:20:15.015Z,4.2
2019-03-25T00:25:37.823Z,4.6
2019-03-25T00:31:00.493Z,4.6
2019-03-25T00:36:23.229Z,4.1
2019-03-25T00:41:45.897Z,4
2019-03-25T00:47:10.092Z,4.1
2019-03-25T00:52:32.778Z,3.4
2019-03-25T00:57:55.471Z,3.6
2019-03-25T01:03:18.173Z,3.4
2019-03-25T01:08:40.841Z,3.7
2019-03-25T01:14:03.674Z,3.8
2019-03-25T01:19:27.239Z,4.1
2019-03-25T01:25:01.121Z,4
2019-03-25T01:30:14.639Z,4.2
2019-03-25T01:35:37.236Z,4.3
2019-03-25T01:40:59.936Z,4.6
2019-03-25T01:46:23.444Z,4.1
2019-03-25T01:51:46.052Z,4.5
2019-03-25T01:57:08.702Z,4.3
2019-03-25T02:02:31.951Z,4.3
2019-03-25T02:07:54.675Z,4
2019-03-25T02:13:18.104Z,4.4
2019-03-25T02:18:40.795Z,4.4
2019-03-25T02:24:03.473Z,4.6
2019-03-25T02:29:26.838Z,4.4
2019-03-25T02:34:49.568Z,4.8
2019-03-25T02:40:12.327Z,5.2
2019-03-25T02:45:34.979Z,4.7
2019-03-25T02:50:57.663Z,5.1
2019-03-25T02:56:21.335Z,5.6
2019-03-25T03:01:44.126Z,6.7
2019-03-25T03:07:06.793Z,4.4
2019-03-25T03:12:29.536Z,2.7
2019-03-25T03:17:52.250Z,2.2
2019-03-25T03:23:15.954Z,2.2
2019-03-25T03:28:39.602Z,2.1
2019-03-25T03:34:02.331Z,1.9
2019-03-25T03:39:25.116Z,2.4
2019-03-25T03:44:48.767Z,2.7
2019-03-25T03:50:13.940Z,2.9
2019-03-25T03:55:35.619Z,2.5
2019-03-25T04:00:58.819Z,2.3
2019-03-25T04:06:22.627Z,1.9
2019-03-25T04:11:45.354Z,2.5
2019-03-25T04:17:08.087Z,2.2
2019-03-25T04:22:30.800Z,2.5
2019-03-25T04:27:53.498Z,2.3
2019-03-25T04:33:16.382Z,2.2
2019-03-25T04:38:39.006Z,2.4
2019-03-25T04:44:01.772Z,2.5
2019-03-25T04:49:24.414Z,2.8
2019-03-25T04:54:47.107Z,2.6
2019-03-25T05:00:09.717Z,2.6
2019-03-25T05:05:32.739Z,2.3
2019-03-25T05:10:55.409Z,2
2019-03-25T05:16:18.664Z,2
2019-03-25T05:21:40.785Z,2
2019-03-25T05:27:03.427Z,1.9
2019-03-25T05:32:26.106Z,1.8
2019-03-25T05:37:48.803Z,2.2
2019-03-25T05:43:11.522Z,1.6
2019-03-25T05:48:34.175Z,1.7
2019-03-25T05:53:56.826Z,1.7
2019-03-25T05:59:19.535Z,1.4
2019-03-25T06:04:42.262Z,1.7
2019-03-25T06:10:04.939Z,1.5
2019-03-25T06:15:27.699Z,1.6
2019-03-25T06:20:50.348Z,1.9
2019-03-25T06:26:12.995Z,1.8
2019-03-25T06:31:35.639Z,1.9
2019-03-25T06:36:58.290Z,1.7
2019-03-25T06:42:20.945Z,2.3
2019-03-25T06:47:43.645Z,2.2
2019-03-25T06:53:06.324Z,2.1
2019-03-25T06:58:29.018Z,2.2
2019-03-25T07:03:51.651Z,2.3
2019-03-25T07:09:15.243Z,2.5
2019-03-25T07:14:38.035Z,2.2
2019-03-25T07:20:00.714Z,1.9
2019-03-25T07:25:23.367Z,2.1
2019-03-25T07:30:46.107Z,2
2019-03-25T07:36:08.840Z,2.3
2019-03-25T07:41:31.518Z,2.5
2019-03-25T07:46:55.063Z,2.6
2019-03-25T07:52:17.810Z,2.2
2019-03-25T07:57:47.925Z,2.3
2019-03-25T08:03:04.459Z,2
2019-03-25T08:08:27.149Z,2.1
2019-03-25T08:13:50.595Z,2.2
2019-03-25T08:19:13.258Z,2.4
2019-03-25T08:24:36.322Z,2.1
2019-03-25T08:30:00.054Z,2.1
2019-03-25T08:35:22.689Z,1.8
2019-03-25T08:40:45.383Z,1.8
2019-03-25T08:46:08.071Z,1.9
2019-03-25T08:51:30.801Z,2.1
2019-03-25T08:56:53.499Z,2.4
2019-03-25T09:02:16.196Z,2.4
2019-03-25T09:07:38.900Z,1.4
2019-03-25T09:13:01.603Z,1.8
2019-03-25T09:18:25.293Z,2
2019-03-25T09:23:48.033Z,1.9
2019-03-25T09:29:10.767Z,1.5
2019-03-25T09:34:33.525Z,2.2
2019-03-25T09:39:56.258Z,2.1
2019-03-25T09:45:18.985Z,2
2019-03-25T09:50:41.668Z,2.1
2019-03-25T09:56:04.490Z,2.2
2019-03-25T10:01:27.132Z,2.7
2019-03-25T10:06:49.838Z,2.3
2019-03-25T10:12:12.548Z,1.6
2019-03-25T10:17:35.247Z,1.8
2019-03-25T10:22:58.030Z,1.7
2019-03-25T10:28:21.319Z,2.4
2019-03-25T10:33:43.936Z,2.4
2019-03-25T10:39:06.597Z,2.1
2019-03-25T10:44:29.440Z,2.5
2019-03-25T10:49:52.223Z,2.5
2019-03-25T10:55:15.384Z,2.5
2019-03-25T11:00:38.393Z,1.9
2019-03-25T11:06:01.048Z,2.3
2019-03-25T11:11:23.807Z,1.9
2019-03-25T11:16:46.454Z,2
2019-03-25T11:22:09.114Z,2.3
2019-03-25T11:27:31.808Z,2
2019-03-25T11:32:54.409Z,2
2019-03-25T11:38:17.178Z,2
2019-03-25T11:43:39.868Z,2
2019-03-25T11:49:03.389Z,1.9
2019-03-25T11:54:26.061Z,2.2
2019-03-25T11:59:48.773Z,1.9
2019-03-25T12:05:11.430Z,1.8
2019-03-25T12:10:34.278Z,2
2019-03-25T12:15:56.972Z,2.3
2019-03-25T12:21:20.261Z,2.5
2019-03-25T12:26:43.061Z,1.8
2019-03-25T12:32:06.867Z,1.9
2019-03-25T12:37:29.547Z,2.1
2019-03-25T12:42:52.648Z,2.7
2019-03-25T12:48:15.354Z,2.2
2019-03-25T12:53:38.025Z,2.1
2019-03-25T12:59:01.191Z,2
2019-03-25T13:04:24.411Z,1.6
2019-03-25T13:09:47.314Z,1.9
2019-03-25T13:15:10.239Z,1.8
2019-03-25T13:20:33.043Z,1.9
2019-03-25T13:25:55.868Z,1.8
2019-03-25T13:31:18.882Z,1.7
2019-03-25T13:36:41.617Z,1.7
2019-03-25T13:42:04.493Z,2.3
2019-03-25T13:47:27.225Z,1.6
2019-03-25T13:52:49.962Z,1.9
2019-03-25T13:58:14.163Z,1.7
2019-03-25T14:03:36.850Z,0.9
2019-03-25T14:08:59.572Z,1.3
2019-03-25T14:14:22.431Z,1.2
2019-03-25T14:19:45.069Z,1.3
2019-03-25T14:25:07.775Z,1.1
2019-03-25T14:30:30.433Z,1.4
2019-03-25T14:35:53.209Z,1.5
2019-03-25T14:41:16.074Z,1.6
2019-03-25T14:46:38.853Z,1.2
2019-03-25T14:52:01.557Z,1.7
2019-03-25T14:57:24.310Z,1.6
2019-03-25T15:02:47.071Z,1.5
2019-03-25T15:08:09.691Z,1.3
2019-03-25T15:13:32.843Z,1.4
2019-03-25T15:18:55.485Z,1.5
2019-03-25T15:24:18.201Z,1.3
2019-03-25T15:29:41.697Z,1.4
2019-03-25T15:35:04.304Z,1.7
2019-03-25T15:40:27.231Z,1.4
2019-03-25T15:45:52.122Z,1.9
2019-03-25T15:51:14.964Z,2.2
2019-03-25T15:56:37.729Z,1.9
2019-03-25T16:02:00.418Z,1.5
2019-03-25T16:07:23.123Z,2.1
2019-03-25T16:12:45.797Z,2
2019-03-25T16:18:08.486Z,2.1
2019-03-25T16:23:31.175Z,2.2
2019-03-25T16:28:53.891Z,2.1
2019-03-25T16:34:17.396Z,2
2019-03-25T16:39:40.069Z,1.9
2019-03-25T16:45:02.701Z,2
2019-03-25T16:50:25.429Z,2.4
2019-03-25T16:55:48.063Z,2.2
2019-03-25T17:01:10.752Z,2
2019-03-25T17:06:33.357Z,2
2019-03-25T17:11:56.518Z,1.7
2019-03-25T17:17:19.188Z,1.7
2019-03-25T17:22:41.911Z,1.8
2019-03-25T17:28:04.635Z,2.1
2019-03-25T17:33:27.321Z,1.7
2019-03-25T17:38:50.085Z,1.8
2019-03-25T17:44:12.730Z,1.8
2019-03-25T17:49:35.479Z,1.7
2019-03-25T17:54:58.149Z,1.5
2019-03-25T18:00:20.878Z,2.1
2019-03-25T18:05:43.531Z,2.6
2019-03-25T18:11:06.226Z,2.3
2019-03-25T18:16:32.413Z,2.5
2019-03-25T18:21:55.086Z,2.2
2019-03-25T18:27:18.535Z,2.2
2019-03-25T18:32:41.212Z,2.1
2019-03-25T18:38:05.061Z,3
2019-03-25T18:43:28.631Z,2.3
2019-03-25T18:48:51.324Z,2.3
2019-03-25T18:54:14.042Z,2.1
2019-03-25T18:59:36.923Z,2.3
2019-03-25T19:04:59.717Z,2.6
2019-03-25T19:10:22.556Z,2.4
2019-03-25T19:15:46.322Z,2
2019-03-25T19:21:09.341Z,1.9
2019-03-25T19:26:32.113Z,2.1
2019-03-25T19:32:05.839Z,2.7
2019-03-25T19:37:18.770Z,2.5
2019-03-25T19:42:41.553Z,2.7
2019-03-25T19:48:04.315Z,2.9
2019-03-25T19:53:26.992Z,2.7
2019-03-25T19:58:49.836Z,2.9
2019-03-25T20:04:12.484Z,2.3
2019-03-25T20:09:35.298Z,2.8
2019-03-25T20:14:58.150Z,2.9
2019-03-25T20:20:22.148Z,2.7
2019-03-25T20:25:44.850Z,2.7
2019-03-25T20:31:07.734Z,2.8
2019-03-25T20:36:30.463Z,2.7
2019-03-25T20:41:53.130Z,3.5
2019-03-25T20:47:16.265Z,2.8
2019-03-25T20:52:38.923Z,2.6
2019-03-25T20:58:01.550Z,2.7
2019-03-25T21:03:24.270Z,12.2
2019-03-25T21:08:46.966Z,2.8
2019-03-25T21:14:09.751Z,2.8
2019-03-25T21:19:32.689Z,3.5
2019-03-25T21:24:55.484Z,3.6
2019-03-25T21:30:18.166Z,3.3
2019-03-25T21:35:40.842Z,3.3
2019-03-25T21:41:03.539Z,3.5
2019-03-25T21:46:26.279Z,3.4
2019-03-25T21:51:49.983Z,3.2
2019-03-25T21:57:12.874Z,3.7
2019-03-25T22:02:35.495Z,3.5
2019-03-25T22:07:58.232Z,2.9
2019-03-25T22:13:20.968Z,3
2019-03-25T22:18:43.694Z,3.8
2019-03-25T22:24:06.842Z,3.5
2019-03-25T22:29:29.537Z,3.7
2019-03-25T22:34:52.369Z,3.2
2019-03-25T22:40:15.024Z,3.8
2019-03-25T22:45:37.694Z,4.1
2019-03-25T22:51:00.779Z,3.9
2019-03-25T22:56:23.988Z,3.3
2019-03-25T23:01:46.711Z,4.1
2019-03-25T23:07:09.393Z,4.2
2019-03-25T23:12:32.037Z,3.6
2019-03-25T23:17:54.665Z,4.7
2019-03-25T23:23:19.044Z,4.4
2019-03-25T23:28:41.766Z,4.2
2019-03-25T23:34:04.465Z,5.1
2019-03-25T23:39:27.244Z,4.1
2019-03-25T23:44:50.015Z,4.9
2019-03-25T23:50:12.823Z,4.9
2019-03-25T23:55:35.427Z,4.8
